• Join FlightAware (Why Join?)
  • Login
  • US Flag 
03:27AM EDT


 

Airport Tracker/Info


-or-


 

Live Flight TrackerFlight Track Log ✈ N560HM ✈ 16-Mar-2014 ✈ KIAD - KAGC

Flight Track Log - Related Links

Times and Time Zones

All times are in EDT time to prevent confusion due to time zone crossing. See the N560HM flight status page for this flight to view local times or setup timezone preferences in your user account.

Time Position Orientation Groundspeed Altitude Reporting Facility
EDT Latitude Longitude Course Direction KTS MPH feet Rate Location/Type
05:48PM 39.0333 -77.5000 346° North 236 272 4,000  Level Potomac TRACON
05:49PM 39.0833 -77.5333 333° Northwest 261 300 6,600 2,580 Climbing Potomac TRACON
05:51PM 39.1667 -77.5833 335° Northwest 283 326 9,500 2,640 Climbing Potomac TRACON
05:52PM 39.2333 -77.6333 330° Northwest 291 335 12,200 2,220 Climbing Potomac TRACON
05:53PM 39.3097 -77.6972 327° Northwest 303 349 14,400 1,620 Climbing Washington Center
05:54PM 39.3939 -77.5813 346° North  Level FlightAware Approximate
05:54PM 39.3881 -77.7533 331° Northwest 314 361 15,800  Level Washington Center
05:55PM 39.4661 -77.8119 330° Northwest 319 367 16,100 300 Climbing Washington Center
05:57PM 39.5906 -78.0356 306° West 310 357 17,000 240 Climbing Cleveland Center
05:58PM 39.6206 -78.1411 290° West 312 359 17,000  Level Cleveland Center
05:59PM 39.6531 -78.2478 292° West 316 364 17,000  Level Cleveland Center
06:00PM 39.6906 -78.3767 291° West 317 365 17,000  Level Cleveland Center
06:01PM 39.7228 -78.4831 292° West 317 365 17,000  Level Cleveland Center
06:02PM 39.7525 -78.5889 290° West 317 365 17,000 -240 Level Cleveland Center
06:03PM 39.7817 -78.6886 291° West 316 364 16,600 -1,140 Descending Cleveland Center
06:04PM 39.8053 -78.7725 290° West 308 354 15,200 -2,100 Descending Cleveland Center
06:04PM 39.8089 -78.7811 299° West 307 353 15,100 -960 Descending Cleveland Center
06:04PM 39.8175 -78.8128 290° West 307 353 14,800 -1,500 Descending Cleveland Center
06:05PM 39.8383 -78.8831 291° West 303 349 13,600 -1,440 Descending Cleveland Center
06:06PM 39.8464 -78.9133 289° West 304 350 13,300 -1,500 Descending Cleveland Center
06:06PM 39.8675 -78.9878 290° West 309 356 12,100 -1,680 Descending Cleveland Center
06:07PM 39.8772 -79.0189 292° West 307 353 11,600 -1,620 Descending Cleveland Center
06:07PM 39.8983 -79.0953 290° West 297 342 10,500 -1,380 Descending Cleveland Center
06:08PM 39.9050 -79.1153 293° West 293 337 10,200 -1,500 Descending Cleveland Center
06:08PM 39.9225 -79.1833 289° West 263 303 9,000 -1,560 Descending Cleveland Center
06:09PM 39.9306 -79.2050 296° West 268 308 8,600 -1,440 Descending Cleveland Center
06:09PM 39.9533 -79.2667 296° West 255 293 7,600 -1,380 Descending Cleveland Center
06:10PM 39.9722 -79.3058 302° West 266 306 7,200 -720 Descending Cleveland Center
06:10PM 39.9903 -79.3508 298° West 264 304 6,900 -300 Descending Cleveland Center
06:11PM 40.0069 -79.3894 299° West 265 305 6,900  Level Cleveland Center
06:12PM 40.0425 -79.4733 299° West 265 305 6,900  Level Cleveland Center
06:12PM 40.0614 -79.5222 297° West 266 306 6,900  Level Cleveland Center
06:13PM 40.0797 -79.5589 303° West 265 305 6,900 -720 Level Cleveland Center
06:14PM 40.1139 -79.6433 298° West 265 305 5,800 -900 Descending Cleveland Center
06:15PM 40.1478 -79.7253 298° West 259 298 5,100 -480 Descending Cleveland Center
06:16PM 40.1856 -79.7975 304° West 243 280 4,900 -600 Descending Cleveland Center
06:17PM 40.2261 -79.8553 313° West 217 250 3,900 -780 Descending Cleveland Center
06:18PM 40.2767 -79.9156 318° Northwest 213 245 3,300 -720 Descending Cleveland Center
06:19PM 40.3114 -79.9542 320° Northwest 186 214 2,500 -720 Descending Cleveland Center
06:20PM 40.3436 -79.9653 345° North 146 168 1,900 -600 Descending Cleveland Center
06:21PM 40.3536 -79.9314 69° East 129 148 1,300 -600 Descending Cleveland Center
06:23PM 40.3544 -79.9290 123° Southeast  Level Estimated